Time;durP1;ratioP1;P1;durP2;ratioP2;P2;SDS_P1;SDS_P2;PMS_P1;PMS_P2;Temp;Humidity;BMP_temperature;BMP_pressure;BME280_temperature;BME280_humidity;BME280_pressure;Samples;Min_cycle;Max_cycle;Signal;HPM_P1;HPM_P2
2023/03/31 00:03:08;;;;;;;;;;;17.00;66.80;;;;;;10091263;28;94418;-65
2023/03/31 00:08:12;;;;;;;;;;;17.00;66.70;;;;;;10090811;28;93022;-64
2023/03/31 00:13:14;;;;;;;;;;;16.90;66.60;;;;;;10092244;28;93470;-65
2023/03/31 00:18:16;;;;;;;;;;;16.90;66.60;;;;;;10091068;28;93530;-65
2023/03/31 00:23:26;;;;;;;;;;;16.90;66.70;;;;;;10090299;28;93111;-64
2023/03/31 00:28:28;;;;;;;;;;;16.90;66.60;;;;;;10087294;28;95503;-65
2023/03/31 00:33:30;;;;;;;;;;;16.90;66.70;;;;;;10090672;28;93643;-64
2023/03/31 00:38:32;;;;;;;;;;;16.90;66.60;;;;;;10089494;28;93616;-64
2023/03/31 00:43:35;;;;;;;;;;;16.90;66.60;;;;;;10090719;28;93457;-64
2023/03/31 00:48:46;;;;;;;;;;;16.90;66.60;;;;;;10089683;28;93831;-65
2023/03/31 00:53:54;;;;;;;;;;;16.90;66.60;;;;;;10089761;28;93322;-64
2023/03/31 00:58:58;;;;;;;;;;;16.80;66.50;;;;;;10090184;28;94455;-64
2023/03/31 01:04:01;;;;;;;;;;;16.90;66.50;;;;;;10090490;28;92620;-64
2023/03/31 01:09:05;;;;;;;;;;;16.80;66.50;;;;;;10089629;28;93679;-64
2023/03/31 01:14:08;;;;;;;;;;;16.80;66.60;;;;;;10088263;28;93486;-64
2023/03/31 01:19:16;;;;;;;;;;;16.80;66.50;;;;;;10087129;28;96076;-65
2023/03/31 01:24:24;;;;;;;;;;;16.80;66.50;;;;;;10088844;28;93541;-65
2023/03/31 01:29:45;;;;;;;;;;;16.80;66.50;;;;;;10071839;28;93215;-64
2023/03/31 01:35:05;;;;;;;;;;;16.80;66.50;;;;;;10088659;28;94475;-64
2023/03/31 01:40:25;;;;;;;;;;;16.80;66.50;;;;;;10088302;28;93448;-64
2023/03/31 01:45:28;;;;;;;;;;;16.80;66.50;;;;;;10087661;28;94296;-64
2023/03/31 01:50:46;;;;;;;;;;;16.80;66.40;;;;;;10088073;28;93238;-65
2023/03/31 01:56:08;;;;;;;;;;;16.80;66.50;;;;;;10088712;28;94153;-65
2023/03/31 02:01:10;;;;;;;;;;;16.80;66.50;;;;;;10087708;28;93428;-65
2023/03/31 02:06:15;;;;;;;;;;;16.80;66.40;;;;;;10086988;28;93172;-65
2023/03/31 02:11:17;;;;;;;;;;;16.80;66.40;;;;;;10085704;28;95829;-65
2023/03/31 02:16:25;;;;;;;;;;;16.80;66.40;;;;;;10088368;28;93568;-63
2023/03/31 02:21:28;;;;;;;;;;;16.80;66.40;;;;;;10087289;28;93692;-65
2023/03/31 02:26:32;;;;;;;;;;;16.80;66.50;;;;;;10090981;28;94170;-64
2023/03/31 02:31:37;;;;;;;;;;;16.80;66.50;;;;;;10077744;28;94590;-65
2023/03/31 02:36:41;;;;;;;;;;;16.80;66.50;;;;;;10093964;28;94513;-63
2023/03/31 02:41:42;;;;;;;;;;;16.80;66.40;;;;;;10094324;28;94589;-65
2023/03/31 02:46:44;;;;;;;;;;;16.80;66.40;;;;;;10094642;28;93755;-65
2023/03/31 02:52:05;;;;;;;;;;;16.70;66.40;;;;;;10093694;28;93546;-64
2023/03/31 02:57:12;;;;;;;;;;;16.70;66.40;;;;;;10093364;28;93509;-64
2023/03/31 03:02:25;;;;;;;;;;;16.70;66.40;;;;;;10090433;28;95532;-64
2023/03/31 03:07:36;;;;;;;;;;;16.70;66.40;;;;;;10076583;28;94661;-65
2023/03/31 03:12:52;;;;;;;;;;;16.70;66.40;;;;;;10093619;28;94465;-65
2023/03/31 03:17:54;;;;;;;;;;;16.70;66.40;;;;;;10092829;28;93518;-65
2023/03/31 03:22:56;;;;;;;;;;;16.70;66.40;;;;;;10092845;28;93853;-65
2023/03/31 03:27:58;;;;;;;;;;;16.70;66.40;;;;;;10075404;28;93215;-65
2023/03/31 03:32:59;;;;;;;;;;;16.70;66.50;;;;;;10074863;28;92868;-66
2023/03/31 03:38:01;;;;;;;;;;;16.70;66.40;;;;;;10091392;28;92935;-63
2023/03/31 03:43:03;;;;;;;;;;;16.70;66.50;;;;;;10091939;28;94513;-65
2023/03/31 05:06:32;;;;;;;;;;;16.70;66.40;;;;;;9995011;29;94157;-64
2023/03/31 05:11:34;;;;;;;;;;;16.80;66.30;;;;;;10009672;29;92932;-64
2023/03/31 05:16:35;;;;;;;;;;;16.80;66.30;;;;;;10001470;29;93266;-63
2023/03/31 05:21:37;;;;;;;;;;;16.80;66.40;;;;;;9981115;29;93527;-64
2023/03/31 05:26:40;;;;;;;;;;;16.80;66.50;;;;;;9970634;29;93610;-63
2023/03/31 05:31:41;;;;;;;;;;;16.80;66.60;;;;;;9973866;29;94790;-64
2023/03/31 05:36:43;;;;;;;;;;;16.80;66.70;;;;;;9969921;29;92859;-64
2023/03/31 05:41:45;;;;;;;;;;;16.80;66.80;;;;;;9970004;29;94363;-64
2023/03/31 05:46:47;;;;;;;;;;;16.80;66.90;;;;;;9966464;29;93496;-64
2023/03/31 05:51:50;;;;;;;;;;;16.80;67.10;;;;;;9965208;29;96438;-64
2023/03/31 05:56:52;;;;;;;;;;;16.80;67.40;;;;;;10007014;29;93751;-65
2023/03/31 06:01:54;;;;;;;;;;;16.80;68.10;;;;;;9989776;29;94530;-64
2023/03/31 06:06:57;;;;;;;;;;;16.90;69.00;;;;;;10009501;29;94421;-64
2023/03/31 06:11:58;;;;;;;;;;;16.90;69.00;;;;;;10010232;29;93292;-64
2023/03/31 06:17:00;;;;;;;;;;;16.90;69.30;;;;;;10008713;29;93560;-64
2023/03/31 06:22:02;;;;;;;;;;;16.90;68.80;;;;;;10009452;29;93663;-64
2023/03/31 06:27:05;;;;;;;;;;;16.90;68.60;;;;;;10009835;29;92778;-64
2023/03/31 06:32:06;;;;;;;;;;;16.90;68.50;;;;;;10009546;29;93693;-64
2023/03/31 06:37:08;;;;;;;;;;;16.90;68.50;;;;;;10009161;29;93350;-63
2023/03/31 06:42:10;;;;;;;;;;;16.80;68.40;;;;;;10006081;29;96620;-64
2023/03/31 06:47:12;;;;;;;;;;;16.80;68.30;;;;;;10009268;29;94581;-63
2023/03/31 06:52:14;;;;;;;;;;;16.80;68.30;;;;;;10008047;29;94414;-63
2023/03/31 06:57:16;;;;;;;;;;;16.80;68.30;;;;;;10009678;29;93189;-64
2023/03/31 07:02:18;;;;;;;;;;;16.80;68.30;;;;;;10009677;29;95992;-63
2023/03/31 07:07:20;;;;;;;;;;;16.80;68.20;;;;;;10006585;29;93537;-63
2023/03/31 07:12:22;;;;;;;;;;;16.90;68.10;;;;;;10010380;29;94469;-63
2023/03/31 07:17:24;;;;;;;;;;;16.90;68.00;;;;;;10015401;29;92617;-63
2023/03/31 07:22:25;;;;;;;;;;;16.90;68.00;;;;;;10015768;29;93325;-64
2023/03/31 07:27:27;;;;;;;;;;;16.90;68.20;;;;;;10014469;29;93428;-63
2023/03/31 07:32:29;;;;;;;;;;;16.90;68.00;;;;;;10011905;29;96155;-63
2023/03/31 07:37:37;;;;;;;;;;;16.90;67.90;;;;;;10014981;29;92907;-63
2023/03/31 07:42:38;;;;;;;;;;;16.90;67.80;;;;;;10013564;29;92775;-63
2023/03/31 07:47:41;;;;;;;;;;;16.90;67.60;;;;;;10014042;29;93465;-63
2023/03/31 07:52:43;;;;;;;;;;;16.90;67.50;;;;;;10013388;29;94205;-63
2023/03/31 07:57:47;;;;;;;;;;;16.90;67.60;;;;;;10014530;29;93399;-62
2023/03/31 08:02:49;;;;;;;;;;;16.90;68.20;;;;;;10012876;29;94337;-63
2023/03/31 08:07:51;;;;;;;;;;;17.00;68.20;;;;;;10014690;29;93995;-62
2023/03/31 08:12:53;;;;;;;;;;;17.00;67.80;;;;;;10013539;29;93599;-63
2023/03/31 08:17:55;;;;;;;;;;;17.00;67.70;;;;;;10013806;29;94629;-63
2023/03/31 08:22:56;;;;;;;;;;;17.00;67.50;;;;;;10011140;29;97008;-63
2023/03/31 08:27:58;;;;;;;;;;;17.00;67.50;;;;;;10013934;29;93886;-63
2023/03/31 08:33:00;;;;;;;;;;;17.00;67.60;;;;;;10013103;29;94432;-64
2023/03/31 08:38:02;;;;;;;;;;;16.90;67.60;;;;;;10013890;29;93180;-63
2023/03/31 08:43:09;;;;;;;;;;;17.00;67.60;;;;;;10012778;29;93531;-63
2023/03/31 08:48:24;;;;;;;;;;;16.90;67.60;;;;;;10010843;29;93986;-63
2023/03/31 08:53:26;;;;;;;;;;;16.90;67.60;;;;;;10013093;29;93993;-63
2023/03/31 08:58:28;;;;;;;;;;;16.90;67.60;;;;;;10013182;29;93720;-62
2023/03/31 09:03:44;;;;;;;;;;;16.90;67.50;;;;;;10011710;29;93652;-63
2023/03/31 09:08:46;;;;;;;;;;;16.90;67.60;;;;;;10011990;29;94018;-63
2023/03/31 09:14:00;;;;;;;;;;;16.90;67.80;;;;;;10009391;29;96087;-62
2023/03/31 09:19:02;;;;;;;;;;;16.90;67.70;;;;;;10011800;29;93818;-63
2023/03/31 09:24:07;;;;;;;;;;;17.00;67.60;;;;;;10011643;29;94670;-61
2023/03/31 09:29:18;;;;;;;;;;;17.00;67.50;;;;;;10012335;29;92991;-63
2023/03/31 09:34:30;;;;;;;;;;;17.00;67.60;;;;;;10010055;29;93482;-63
2023/03/31 09:39:32;;;;;;;;;;;17.00;67.60;;;;;;10010654;29;93468;-63
2023/03/31 09:44:34;;;;;;;;;;;17.00;67.60;;;;;;10012015;29;93641;-64
2023/03/31 09:49:36;;;;;;;;;;;17.00;67.80;;;;;;10010758;29;92846;-63
2023/03/31 09:54:42;;;;;;;;;;;17.00;67.80;;;;;;10010833;29;93262;-63
2023/03/31 09:59:49;;;;;;;;;;;17.00;67.70;;;;;;10009185;29;94410;-64
2023/03/31 10:04:51;;;;;;;;;;;16.90;67.70;;;;;;10008064;29;96870;-64
2023/03/31 10:09:53;;;;;;;;;;;16.90;67.60;;;;;;10010835;29;94777;-64
2023/03/31 10:15:02;;;;;;;;;;;16.90;67.90;;;;;;10009913;29;93659;-63
2023/03/31 10:20:16;;;;;;;;;;;16.90;67.80;;;;;;10009874;29;93497;-63
2023/03/31 10:25:23;;;;;;;;;;;17.00;67.70;;;;;;10009825;29;94327;-63
2023/03/31 10:30:25;;;;;;;;;;;17.20;67.60;;;;;;10010471;29;93268;-64
2023/03/31 10:35:34;;;;;;;;;;;17.30;67.30;;;;;;10009848;29;92800;-62
2023/03/31 10:40:36;;;;;;;;;;;17.40;66.90;;;;;;10010466;29;93827;-63
2023/03/31 10:45:48;;;;;;;;;;;17.50;66.70;;;;;;10010174;29;93571;-63
2023/03/31 10:50:50;;;;;;;;;;;17.50;66.50;;;;;;10014489;29;93937;-63
2023/03/31 10:55:57;;;;;;;;;;;17.50;66.40;;;;;;10013769;29;95972;-63
2023/03/31 11:01:06;;;;;;;;;;;17.50;66.60;;;;;;10015976;29;94593;-63
2023/03/31 11:06:19;;;;;;;;;;;17.40;66.60;;;;;;10015865;29;94795;-63
2023/03/31 11:11:41;;;;;;;;;;;17.40;66.70;;;;;;10015361;29;114146;-63
2023/03/31 11:16:46;;;;;;;;;;;17.40;66.80;;;;;;10014538;29;93218;-63
2023/03/31 11:22:04;;;;;;;;;;;17.40;66.80;;;;;;10015601;29;92755;-62
2023/03/31 11:27:23;;;;;;;;;;;17.40;66.90;;;;;;10015541;29;94506;-62
2023/03/31 11:32:44;;;;;;;;;;;17.40;66.90;;;;;;10015925;29;93387;-63
2023/03/31 11:37:52;;;;;;;;;;;17.30;66.90;;;;;;10015680;29;94335;-63
2023/03/31 11:42:56;;;;;;;;;;;17.30;67.10;;;;;;10014532;29;94468;-63
2023/03/31 11:48:02;;;;;;;;;;;17.30;67.10;;;;;;10010120;29;96906;-62
2023/03/31 11:53:14;;;;;;;;;;;17.30;67.10;;;;;;10014281;29;93461;-63
2023/03/31 11:58:20;;;;;;;;;;;17.30;67.10;;;;;;10012957;29;93515;-64
2023/03/31 12:03:54;;;;;;;;;;;17.30;67.10;;;;;;10014743;29;93268;-63
2023/03/31 12:09:03;;;;;;;;;;;17.30;67.10;;;;;;10000949;29;93565;-64
2023/03/31 12:14:05;;;;;;;;;;;17.30;67.20;;;;;;10013069;29;94614;-63
2023/03/31 12:19:22;;;;;;;;;;;17.30;68.20;;;;;;10013054;29;94228;-64
2023/03/31 12:24:23;;;;;;;;;;;17.30;67.30;;;;;;10014187;29;93864;-63
2023/03/31 12:29:30;;;;;;;;;;;17.30;67.30;;;;;;10013716;29;94312;-63
2023/03/31 12:34:34;;;;;;;;;;;17.30;67.30;;;;;;10011390;29;94284;-63
2023/03/31 12:39:48;;;;;;;;;;;17.20;67.30;;;;;;10010972;29;96018;-64
2023/03/31 12:45:19;;;;;;;;;;;17.20;67.40;;;;;;10011953;29;93991;-62
2023/03/31 12:50:34;;;;;;;;;;;17.30;67.30;;;;;;10005850;29;93680;-63
2023/03/31 12:55:36;;;;;;;;;;;17.30;67.50;;;;;;10012471;29;94919;-64
2023/03/31 13:00:58;;;;;;;;;;;17.30;67.70;;;;;;10010999;29;94553;-63
2023/03/31 13:06:01;;;;;;;;;;;17.40;68.30;;;;;;10012600;29;93339;-65
2023/03/31 13:11:03;;;;;;;;;;;17.50;70.90;;;;;;10010318;29;93458;-64
2023/03/31 13:16:05;;;;;;;;;;;17.60;71.10;;;;;;10013005;29;93640;-64
2023/03/31 13:21:08;;;;;;;;;;;17.80;70.60;;;;;;10011823;29;93833;-63
2023/03/31 13:26:30;;;;;;;;;;;18.00;70.20;;;;;;10009866;29;92952;-65
2023/03/31 13:31:51;;;;;;;;;;;18.00;70.30;;;;;;9974415;29;95807;-64
2023/03/31 13:37:07;;;;;;;;;;;18.00;70.00;;;;;;9972696;29;94321;-64
2023/03/31 13:42:27;;;;;;;;;;;17.90;69.90;;;;;;9973011;29;92912;-65
2023/03/31 13:47:45;;;;;;;;;;;17.90;69.80;;;;;;9971762;29;94142;-64
2023/03/31 13:52:56;;;;;;;;;;;17.80;69.70;;;;;;9970639;29;93457;-64
2023/03/31 13:58:14;;;;;;;;;;;17.80;69.70;;;;;;9969807;29;93440;-64
2023/03/31 14:03:55;;;;;;;;;;;17.70;69.70;;;;;;9970281;29;92806;-63
2023/03/31 14:09:00;;;;;;;;;;;17.70;70.60;;;;;;9972703;29;94095;-64
2023/03/31 14:14:11;;;;;;;;;;;17.70;69.70;;;;;;9969196;29;93650;-63
2023/03/31 14:19:38;;;;;;;;;;;17.70;69.80;;;;;;9972221;29;94267;-65
2023/03/31 14:24:57;;;;;;;;;;;17.70;69.80;;;;;;9968689;29;95692;-65
2023/03/31 14:30:26;;;;;;;;;;;17.70;69.60;;;;;;9971018;29;93481;-64
2023/03/31 14:35:38;;;;;;;;;;;17.70;70.00;;;;;;9970690;29;93165;-63
2023/03/31 14:40:47;;;;;;;;;;;17.60;69.90;;;;;;9969597;29;93674;-64
2023/03/31 14:45:59;;;;;;;;;;;17.70;69.90;;;;;;9968512;29;93874;-64
2023/03/31 14:51:02;;;;;;;;;;;17.70;69.90;;;;;;9969603;29;94483;-64
2023/03/31 14:56:10;;;;;;;;;;;17.80;70.30;;;;;;9968188;29;94490;-64
2023/03/31 15:01:16;;;;;;;;;;;17.80;70.00;;;;;;9970955;29;93636;-64
2023/03/31 15:06:18;;;;;;;;;;;17.80;69.60;;;;;;9969402;29;93621;-64
2023/03/31 15:11:20;;;;;;;;;;;17.80;69.50;;;;;;9968650;29;94791;-63
2023/03/31 15:16:30;;;;;;;;;;;17.80;69.50;;;;;;9966560;29;95326;-62
2023/03/31 15:21:35;;;;;;;;;;;17.90;70.20;;;;;;9969595;29;93245;-62
2023/03/31 15:26:39;;;;;;;;;;;18.00;69.60;;;;;;9969875;29;94331;-62
2023/03/31 15:31:43;;;;;;;;;;;18.00;69.40;;;;;;9967862;29;93043;-63
2023/03/31 15:36:45;;;;;;;;;;;18.00;69.20;;;;;;9975582;29;93271;-65
2023/03/31 15:41:48;;;;;;;;;;;18.00;69.50;;;;;;9974060;29;93011;-64
2023/03/31 15:47:00;;;;;;;;;;;18.10;68.90;;;;;;9973786;29;93264;-64
2023/03/31 15:52:02;;;;;;;;;;;18.30;71.70;;;;;;9977126;29;93707;-65
2023/03/31 15:57:04;;;;;;;;;;;18.50;73.10;;;;;;9976211;29;93788;-64
2023/03/31 16:02:09;;;;;;;;;;;18.60;74.90;;;;;;9974201;29;93175;-63
2023/03/31 16:07:22;;;;;;;;;;;18.80;75.00;;;;;;9971288;29;95666;-63
2023/03/31 16:12:30;;;;;;;;;;;18.90;74.00;;;;;;9974023;29;93111;-63
2023/03/31 16:17:45;;;;;;;;;;;19.00;73.90;;;;;;9973975;29;93693;-65
2023/03/31 16:22:49;;;;;;;;;;;19.10;74.50;;;;;;9973727;29;93458;-64
2023/03/31 16:27:55;;;;;;;;;;;19.20;74.70;;;;;;9974087;29;94975;-65
2023/03/31 16:32:58;;;;;;;;;;;19.30;75.90;;;;;;9973388;29;94526;-64
2023/03/31 16:38:03;;;;;;;;;;;19.40;75.70;;;;;;9974516;29;94443;-65
2023/03/31 16:43:15;;;;;;;;;;;19.40;74.70;;;;;;9972796;29;93201;-63
2023/03/31 16:48:18;;;;;;;;;;;19.40;73.50;;;;;;9971547;29;94495;-65
2023/03/31 16:53:21;;;;;;;;;;;19.30;73.30;;;;;;9973492;29;94562;-65
2023/03/31 16:58:23;;;;;;;;;;;19.30;72.70;;;;;;9970992;29;95995;-65
2023/03/31 17:03:26;;;;;;;;;;;19.20;72.30;;;;;;9972749;29;94154;-65
2023/03/31 17:08:28;;;;;;;;;;;19.10;72.50;;;;;;9973815;29;94491;-64
2023/03/31 17:13:31;;;;;;;;;;;19.10;72.20;;;;;;9974368;29;94878;-66
2023/03/31 17:18:33;;;;;;;;;;;19.00;72.00;;;;;;9973726;29;94440;-65
2023/03/31 17:23:36;;;;;;;;;;;18.90;72.20;;;;;;9972524;29;93485;-64
2023/03/31 17:28:38;;;;;;;;;;;18.90;72.90;;;;;;9971874;29;94811;-64
2023/03/31 17:33:40;;;;;;;;;;;19.00;74.50;;;;;;9972419;29;92137;-65
2023/03/31 17:38:42;;;;;;;;;;;19.10;73.90;;;;;;9972665;29;93880;-64
2023/03/31 17:43:44;;;;;;;;;;;19.10;73.80;;;;;;9972397;29;94268;-65
2023/03/31 17:48:47;;;;;;;;;;;19.00;73.40;;;;;;9968757;29;97380;-64
2023/03/31 17:53:49;;;;;;;;;;;19.00;73.40;;;;;;9971035;29;94630;-64
2023/03/31 17:58:51;;;;;;;;;;;18.90;73.50;;;;;;9969819;29;93428;-64
2023/03/31 18:03:56;;;;;;;;;;;18.80;73.20;;;;;;9971937;29;94375;-63
2023/03/31 18:08:58;;;;;;;;;;;18.80;73.30;;;;;;9971115;29;93637;-64
2023/03/31 18:14:01;;;;;;;;;;;18.70;73.30;;;;;;9971734;29;93137;-64
2023/03/31 18:19:03;;;;;;;;;;;18.60;73.40;;;;;;9970544;29;93916;-63
2023/03/31 18:24:05;;;;;;;;;;;18.60;73.30;;;;;;9971567;29;92511;-64
2023/03/31 18:29:06;;;;;;;;;;;18.60;73.10;;;;;;9970163;29;93918;-64
2023/03/31 18:34:08;;;;;;;;;;;18.60;73.10;;;;;;9970471;29;93553;-63
2023/03/31 18:39:10;;;;;;;;;;;18.50;73.00;;;;;;9968185;29;95853;-62
2023/03/31 18:44:15;;;;;;;;;;;18.50;73.10;;;;;;9970236;29;93315;-64
2023/03/31 18:49:19;;;;;;;;;;;18.50;73.50;;;;;;9968356;29;93677;-63
2023/03/31 18:54:21;;;;;;;;;;;18.50;73.50;;;;;;9970408;29;92727;-62
2023/03/31 18:59:23;;;;;;;;;;;18.70;75.00;;;;;;9968957;29;93474;-63
2023/03/31 19:04:25;;;;;;;;;;;18.90;73.60;;;;;;9967986;29;93481;-63
2023/03/31 19:09:27;;;;;;;;;;;18.90;73.40;;;;;;9974785;29;94589;-63
2023/03/31 19:14:29;;;;;;;;;;;19.00;73.60;;;;;;9976763;29;92868;-63
2023/03/31 19:19:31;;;;;;;;;;;19.10;73.70;;;;;;9977345;29;95008;-63
2023/03/31 19:24:33;;;;;;;;;;;19.10;74.10;;;;;;9976188;29;93309;-63
2023/03/31 19:29:35;;;;;;;;;;;19.20;74.60;;;;;;9972765;29;96119;-63
2023/03/31 19:34:37;;;;;;;;;;;19.20;74.60;;;;;;9975339;29;93359;-63
2023/03/31 19:39:39;;;;;;;;;;;19.20;77.00;;;;;;9975445;29;94184;-63
2023/03/31 19:44:44;;;;;;;;;;;19.30;75.20;;;;;;9975091;29;94077;-63
2023/03/31 19:49:46;;;;;;;;;;;19.30;76.20;;;;;;9975919;29;92920;-64
2023/03/31 19:54:48;;;;;;;;;;;19.60;74.90;;;;;;9975222;29;96251;-64
2023/03/31 19:59:50;;;;;;;;;;;19.50;74.70;;;;;;9974293;29;94445;-63
2023/03/31 20:04:52;;;;;;;;;;;19.40;74.50;;;;;;9975048;29;92776;-63
2023/03/31 20:09:54;;;;;;;;;;;19.30;74.50;;;;;;9974558;29;93520;-63
2023/03/31 20:14:55;;;;;;;;;;;19.20;74.60;;;;;;9974177;29;93326;-63
2023/03/31 20:19:58;;;;;;;;;;;19.30;75.60;;;;;;9971810;29;96181;-63
2023/03/31 20:25:00;;;;;;;;;;;19.20;75.30;;;;;;9975058;29;93023;-63
2023/03/31 20:30:02;;;;;;;;;;;19.10;75.20;;;;;;9973998;29;93271;-63
2023/03/31 20:35:05;;;;;;;;;;;19.10;75.20;;;;;;9974277;29;93906;-62
2023/03/31 20:40:07;;;;;;;;;;;19.00;75.20;;;;;;9973695;29;93830;-63
2023/03/31 20:45:09;;;;;;;;;;;19.00;75.10;;;;;;9974749;29;93407;-63
2023/03/31 20:50:11;;;;;;;;;;;18.90;75.00;;;;;;9972053;29;93539;-63
2023/03/31 20:55:12;;;;;;;;;;;18.90;74.90;;;;;;9973322;29;92845;-63
2023/03/31 21:00:14;;;;;;;;;;;18.80;74.70;;;;;;9973739;29;93502;-63
2023/03/31 21:05:16;;;;;;;;;;;18.80;74.70;;;;;;9973321;29;94198;-63
2023/03/31 21:10:19;;;;;;;;;;;18.70;74.60;;;;;;9971789;29;95649;-65
2023/03/31 21:15:20;;;;;;;;;;;18.70;74.50;;;;;;9972306;29;94545;-64
2023/03/31 21:20:22;;;;;;;;;;;18.60;74.50;;;;;;9973332;29;94623;-65
2023/03/31 21:25:24;;;;;;;;;;;18.60;74.20;;;;;;9971594;29;93429;-64
2023/03/31 21:30:26;;;;;;;;;;;18.50;74.10;;;;;;9971343;29;93350;-64
2023/03/31 21:35:30;;;;;;;;;;;18.50;73.90;;;;;;9972021;29;94452;-65
2023/03/31 21:40:33;;;;;;;;;;;18.50;73.90;;;;;;9972345;29;92629;-64
2023/03/31 21:45:38;;;;;;;;;;;18.40;73.70;;;;;;9972060;29;92803;-64
2023/03/31 21:50:40;;;;;;;;;;;18.40;73.60;;;;;;9970891;29;93699;-64
2023/03/31 21:55:43;;;;;;;;;;;18.30;73.40;;;;;;9971072;29;93521;-64
2023/03/31 22:00:45;;;;;;;;;;;18.30;73.20;;;;;;9969622;29;96370;-64
2023/03/31 22:05:47;;;;;;;;;;;18.30;73.10;;;;;;9970789;29;93622;-63
2023/03/31 22:10:50;;;;;;;;;;;18.20;73.10;;;;;;9971490;29;94075;-64
2023/03/31 22:15:52;;;;;;;;;;;18.10;73.00;;;;;;9971494;29;95045;-64
2023/03/31 22:20:55;;;;;;;;;;;18.10;72.90;;;;;;9970725;29;93546;-63
2023/03/31 22:25:57;;;;;;;;;;;18.10;72.90;;;;;;9971372;29;94632;-64
2023/03/31 22:30:59;;;;;;;;;;;18.10;73.80;;;;;;9970073;29;94515;-63
2023/03/31 22:36:01;;;;;;;;;;;18.00;72.70;;;;;;9972094;29;92907;-63
2023/03/31 22:41:03;;;;;;;;;;;18.00;72.70;;;;;;9970738;29;93946;-64
2023/03/31 22:46:05;;;;;;;;;;;18.00;72.70;;;;;;9978327;29;94489;-64
2023/03/31 22:51:10;;;;;;;;;;;18.00;72.60;;;;;;9974378;29;95954;-64
2023/03/31 22:56:12;;;;;;;;;;;18.00;72.50;;;;;;9976989;29;94887;-64
2023/03/31 23:01:15;;;;;;;;;;;17.90;72.40;;;;;;9975421;29;94685;-64
2023/03/31 23:06:18;;;;;;;;;;;17.90;72.40;;;;;;9976649;29;93273;-64
2023/03/31 23:11:19;;;;;;;;;;;17.90;72.40;;;;;;9978294;29;93820;-64
2023/03/31 23:16:22;;;;;;;;;;;17.90;72.40;;;;;;9976925;29;93301;-63
2023/03/31 23:21:25;;;;;;;;;;;17.90;72.30;;;;;;9977446;29;94623;-65
2023/03/31 23:26:28;;;;;;;;;;;17.80;72.20;;;;;;9978409;29;93796;-63
2023/03/31 23:31:31;;;;;;;;;;;17.80;72.20;;;;;;9976726;29;94375;-64
2023/03/31 23:36:33;;;;;;;;;;;17.80;72.10;;;;;;9976275;29;94042;-63
2023/03/31 23:41:35;;;;;;;;;;;17.80;72.10;;;;;;9972682;29;96867;-63
2023/03/31 23:46:38;;;;;;;;;;;17.80;72.00;;;;;;9977023;29;94470;-63
2023/03/31 23:51:40;;;;;;;;;;;17.70;72.00;;;;;;9974392;29;94406;-64
2023/03/31 23:56:41;;;;;;;;;;;17.70;71.90;;;;;;9976473;29;93411;-64
